sensor_id;sensor_type;location;lat;lon;timestamp;P1;durP1;ratioP1;P2;durP2;ratioP2
59986;SDS011;46181;51.498;5.392;2023-04-15T00:03:06;11.044;;;4.98;;
59986;SDS011;46181;51.498;5.392;2023-04-15T00:07:36;10.816;;;5.284001;;
59986;SDS011;46181;51.498;5.392;2023-04-15T00:12:06;7.72;;;4.996;;
59986;SDS011;46181;51.498;5.392;2023-04-15T00:16:36;9.444;;;4.683999;;
59986;SDS011;46181;51.498;5.392;2023-04-15T00:21:06;10.184;;;4.444001;;
59986;SDS011;46181;51.498;5.392;2023-04-15T00:25:36;7.967999;;;3.579999;;
59986;SDS011;46181;51.498;5.392;2023-04-15T00:30:06;10.224;;;3.952;;
59986;SDS011;46181;51.498;5.392;2023-04-15T00:34:36;7.236;;;4.172;;
59986;SDS011;46181;51.498;5.392;2023-04-15T00:39:06;7.671999;;;4.067999;;
59986;SDS011;46181;51.498;5.392;2023-04-15T00:43:36;10.748;;;4.632;;
59986;SDS011;46181;51.498;5.392;2023-04-15T00:48:06;8.836001;;;4.083999;;
59986;SDS011;46181;51.498;5.392;2023-04-15T00:52:36;7.244;;;4.072;;
59986;SDS011;46181;51.498;5.392;2023-04-15T00:57:07;9.375999;;;4.271999;;
59986;SDS011;46181;51.498;5.392;2023-04-15T01:01:36;8.736;;;4.3;;
59986;SDS011;46181;51.498;5.392;2023-04-15T01:06:06;11.08;;;4.708;;
59986;SDS011;46181;51.498;5.392;2023-04-15T01:10:36;11.284;;;5.139999;;
59986;SDS011;46181;51.498;5.392;2023-04-15T01:15:07;9.995999;;;4.836;;
59986;SDS011;46181;51.498;5.392;2023-04-15T01:19:36;10.836;;;4.972001;;
59986;SDS011;46181;51.498;5.392;2023-04-15T01:24:08;9.596001;;;4.504;;
59986;SDS011;46181;51.498;5.392;2023-04-15T01:28:36;8.339998;;;4.932;;
59986;SDS011;46181;51.498;5.392;2023-04-15T01:33:06;10.732;;;5.103999;;
59986;SDS011;46181;51.498;5.392;2023-04-15T01:37:36;10.824;;;4.768;;
59986;SDS011;46181;51.498;5.392;2023-04-15T01:42:06;9.608;;;5.015999;;
59986;SDS011;46181;51.498;5.392;2023-04-15T01:46:36;10.3;;;4.98;;
59986;SDS011;46181;51.498;5.392;2023-04-15T01:51:06;9.451999;;;5.135999;;
59986;SDS011;46181;51.498;5.392;2023-04-15T01:55:36;8.736;;;5.228;;
59986;SDS011;46181;51.498;5.392;2023-04-15T02:00:07;11.264;;;5.139999;;
59986;SDS011;46181;51.498;5.392;2023-04-15T02:04:36;8.004001;;;4.952001;;
59986;SDS011;46181;51.498;5.392;2023-04-15T02:09:06;12.244;;;5.304001;;
59986;SDS011;46181;51.498;5.392;2023-04-15T02:13:36;9.632;;;5.376001;;
59986;SDS011;46181;51.498;5.392;2023-04-15T02:18:06;9.252;;;5.452001;;
59986;SDS011;46181;51.498;5.392;2023-04-15T02:22:36;9.2;;;5.147999;;
59986;SDS011;46181;51.498;5.392;2023-04-15T02:27:06;8.584001;;;5.36;;
59986;SDS011;46181;51.498;5.392;2023-04-15T02:31:36;12.768;;;5.784001;;
59986;SDS011;46181;51.498;5.392;2023-04-15T02:36:06;11.368;;;5.740001;;
59986;SDS011;46181;51.498;5.392;2023-04-15T02:40:36;9.411999;;;5.860001;;
59986;SDS011;46181;51.498;5.392;2023-04-15T02:45:07;9.503999;;;5.452;;
59986;SDS011;46181;51.498;5.392;2023-04-15T02:49:37;10.444;;;5.524;;
59986;SDS011;46181;51.498;5.392;2023-04-15T02:54:06;9.164001;;;5.208001;;
59986;SDS011;46181;51.498;5.392;2023-04-15T02:58:36;12.788;;;5.844001;;
59986;SDS011;46181;51.498;5.392;2023-04-15T03:03:06;8.52;;;5.224;;
59986;SDS011;46181;51.498;5.392;2023-04-15T03:07:36;9.184;;;5.188001;;
59986;SDS011;46181;51.498;5.392;2023-04-15T03:12:06;8.879999;;;5.747999;;
59986;SDS011;46181;51.498;5.392;2023-04-15T03:16:36;11.132;;;5.623999;;
59986;SDS011;46181;51.498;5.392;2023-04-15T03:21:06;9.639998;;;5.592;;
59986;SDS011;46181;51.498;5.392;2023-04-15T03:25:36;8.672;;;5.400001;;
59986;SDS011;46181;51.498;5.392;2023-04-15T03:30:07;9.799999;;;5.668001;;
59986;SDS011;46181;51.498;5.392;2023-04-15T03:34:36;8.555999;;;5.612;;
59986;SDS011;46181;51.498;5.392;2023-04-15T03:39:06;10.192;;;5.995998;;
59986;SDS011;46181;51.498;5.392;2023-04-15T03:43:36;9.608001;;;5.671999;;
59986;SDS011;46181;51.498;5.392;2023-04-15T03:48:06;9.04;;;5.703999;;
59986;SDS011;46181;51.498;5.392;2023-04-15T03:52:36;10.384;;;6.184;;
59986;SDS011;46181;51.498;5.392;2023-04-15T03:57:06;10.852;;;6.492;;
59986;SDS011;46181;51.498;5.392;2023-04-15T04:01:36;12.136;;;6.163999;;
59986;SDS011;46181;51.498;5.392;2023-04-15T04:06:06;11.088;;;6.236;;
59986;SDS011;46181;51.498;5.392;2023-04-15T04:10:36;9.948;;;6.195998;;
59986;SDS011;46181;51.498;5.392;2023-04-15T04:15:07;11.892;;;6.004;;
59986;SDS011;46181;51.498;5.392;2023-04-15T04:19:36;10.756;;;6.663999;;
59986;SDS011;46181;51.498;5.392;2023-04-15T04:24:06;10.5;;;5.747999;;
59986;SDS011;46181;51.498;5.392;2023-04-15T04:28:36;11.864;;;6.163999;;
59986;SDS011;46181;51.498;5.392;2023-04-15T04:33:06;9.372;;;5.784001;;
59986;SDS011;46181;51.498;5.392;2023-04-15T04:37:36;12.616;;;6.556;;
59986;SDS011;46181;51.498;5.392;2023-04-15T04:42:06;10.988;;;5.800001;;
59986;SDS011;46181;51.498;5.392;2023-04-15T04:46:36;9.752;;;6.368001;;
59986;SDS011;46181;51.498;5.392;2023-04-15T04:51:06;11.384;;;6.171999;;
59986;SDS011;46181;51.498;5.392;2023-04-15T04:55:36;9.711998;;;6.144;;
59986;SDS011;46181;51.498;5.392;2023-04-15T05:00:07;11.78;;;6.436;;
59986;SDS011;46181;51.498;5.392;2023-04-15T05:04:37;11.404;;;6.004;;
59986;SDS011;46181;51.498;5.392;2023-04-15T05:09:06;11.808;;;6.292001;;
59986;SDS011;46181;51.498;5.392;2023-04-15T05:13:36;11.536;;;6.615999;;
59986;SDS011;46181;51.498;5.392;2023-04-15T05:18:06;11.712;;;6.955999;;
59986;SDS011;46181;51.498;5.392;2023-04-15T05:22:36;9.276;;;6.271999;;
59986;SDS011;46181;51.498;5.392;2023-04-15T05:27:06;13.588;;;6.844001;;
59986;SDS011;46181;51.498;5.392;2023-04-15T05:31:36;9.288002;;;6.072;;
59986;SDS011;46181;51.498;5.392;2023-04-15T05:36:06;9.552001;;;6;;
59986;SDS011;46181;51.498;5.392;2023-04-15T05:40:36;10.772;;;6.635999;;
59986;SDS011;46181;51.498;5.392;2023-04-15T05:45:07;12.532;;;6.639999;;
59986;SDS011;46181;51.498;5.392;2023-04-15T05:49:36;10.792;;;6.675998;;
59986;SDS011;46181;51.498;5.392;2023-04-15T05:54:06;9.540001;;;6.147998;;
59986;SDS011;46181;51.498;5.392;2023-04-15T05:58:36;9.648;;;6.552001;;
59986;SDS011;46181;51.498;5.392;2023-04-15T06:03:06;11.424;;;6.823999;;
59986;SDS011;46181;51.498;5.392;2023-04-15T06:07:36;12.544;;;7.247999;;
59986;SDS011;46181;51.498;5.392;2023-04-15T06:12:06;10.104;;;6.683998;;
59986;SDS011;46181;51.498;5.392;2023-04-15T06:16:36;11.26;;;6.968;;
59986;SDS011;46181;51.498;5.392;2023-04-15T06:21:06;11.4;;;6.683999;;
59986;SDS011;46181;51.498;5.392;2023-04-15T06:25:36;10.204;;;6.603998;;
59986;SDS011;46181;51.498;5.392;2023-04-15T06:30:07;12.2;;;7.024;;
59986;SDS011;46181;51.498;5.392;2023-04-15T06:34:36;10.256;;;7.280001;;
59986;SDS011;46181;51.498;5.392;2023-04-15T06:39:06;10.364;;;7.320001;;
59986;SDS011;46181;51.498;5.392;2023-04-15T06:43:36;11.18;;;7.448002;;
59986;SDS011;46181;51.498;5.392;2023-04-15T06:48:06;9.664;;;7.02;;
59986;SDS011;46181;51.498;5.392;2023-04-15T06:52:36;12.292;;;7.728;;
59986;SDS011;46181;51.498;5.392;2023-04-15T06:57:06;10.444;;;7.187999;;
59986;SDS011;46181;51.498;5.392;2023-04-15T07:01:36;10.876;;;7.396001;;
59986;SDS011;46181;51.498;5.392;2023-04-15T07:06:06;9.944;;;7.339999;;
59986;SDS011;46181;51.498;5.392;2023-04-15T07:10:36;10.26;;;7.147999;;
59986;SDS011;46181;51.498;5.392;2023-04-15T07:15:07;12.42;;;7.207999;;
59986;SDS011;46181;51.498;5.392;2023-04-15T07:19:36;11.116;;;7.316;;
59986;SDS011;46181;51.498;5.392;2023-04-15T07:24:07;11.712;;;7.324;;
59986;SDS011;46181;51.498;5.392;2023-04-15T07:28:36;10.216;;;7.476;;
59986;SDS011;46181;51.498;5.392;2023-04-15T07:33:06;10.76;;;6.655999;;
59986;SDS011;46181;51.498;5.392;2023-04-15T07:37:36;11.012;;;6.972;;
59986;SDS011;46181;51.498;5.392;2023-04-15T07:42:06;10.48;;;6.631999;;
59986;SDS011;46181;51.498;5.392;2023-04-15T07:46:36;9.152;;;6.024;;
59986;SDS011;46181;51.498;5.392;2023-04-15T07:51:06;8.684;;;5.763999;;
59986;SDS011;46181;51.498;5.392;2023-04-15T07:55:36;9.696001;;;6.348001;;
59986;SDS011;46181;51.498;5.392;2023-04-15T08:00:07;9.804001;;;6.307999;;
59986;SDS011;46181;51.498;5.392;2023-04-15T08:04:36;10.332;;;6.056;;
59986;SDS011;46181;51.498;5.392;2023-04-15T08:09:06;8.919999;;;5.452;;
59986;SDS011;46181;51.498;5.392;2023-04-15T08:13:36;8.155999;;;6;;
59986;SDS011;46181;51.498;5.392;2023-04-15T08:18:06;9.723998;;;5.52;;
59986;SDS011;46181;51.498;5.392;2023-04-15T08:22:36;9.256001;;;5.099999;;
59986;SDS011;46181;51.498;5.392;2023-04-15T08:27:06;8.548;;;5.432;;
59986;SDS011;46181;51.498;5.392;2023-04-15T08:31:36;7.852;;;4.956;;
59986;SDS011;46181;51.498;5.392;2023-04-15T08:36:06;8.068001;;;5.095999;;
59986;SDS011;46181;51.498;5.392;2023-04-15T08:40:39;8.42;;;4.856001;;
59986;SDS011;46181;51.498;5.392;2023-04-15T08:45:07;7.616;;;4.9;;
59986;SDS011;46181;51.498;5.392;2023-04-15T08:49:38;6.656;;;4.340001;;
59986;SDS011;46181;51.498;5.392;2023-04-15T08:54:06;6.416001;;;4.039999;;
59986;SDS011;46181;51.498;5.392;2023-04-15T08:58:36;6.528;;;3.756;;
59986;SDS011;46181;51.498;5.392;2023-04-15T09:03:07;5.972001;;;3.284001;;
59986;SDS011;46181;51.498;5.392;2023-04-15T09:07:36;5.8;;;3.635999;;
59986;SDS011;46181;51.498;5.392;2023-04-15T09:12:07;6.676;;;3.332;;
59986;SDS011;46181;51.498;5.392;2023-04-15T09:21:07;6.652;;;3.119999;;
59986;SDS011;46181;51.498;5.392;2023-04-15T09:25:36;6.635999;;;3.196;;
59986;SDS011;46181;51.498;5.392;2023-04-15T09:30:10;6.088;;;3.42;;
59986;SDS011;46181;51.498;5.392;2023-04-15T09:34:37;7.600001;;;3.436001;;
59986;SDS011;46181;51.498;5.392;2023-04-15T09:39:06;6.192;;;3.1;;
59986;SDS011;46181;51.498;5.392;2023-04-15T09:43:40;5.704001;;;3.14;;
59986;SDS011;46181;51.498;5.392;2023-04-15T09:48:17;5.428001;;;3.128;;
59986;SDS011;46181;51.498;5.392;2023-04-15T09:52:39;6.3;;;3.16;;
59986;SDS011;46181;51.498;5.392;2023-04-15T09:57:10;6.012;;;3.18;;
59986;SDS011;46181;51.498;5.392;2023-04-15T10:01:36;4.408;;;2.236;;
59986;SDS011;46181;51.498;5.392;2023-04-15T10:06:07;4.547999;;;2.548;;
59986;SDS011;46181;51.498;5.392;2023-04-15T10:10:36;5.204001;;;2.744;;
59986;SDS011;46181;51.498;5.392;2023-04-15T10:15:07;5.759999;;;2.824;;
59986;SDS011;46181;51.498;5.392;2023-04-15T10:19:37;5.963999;;;3.167999;;
59986;SDS011;46181;51.498;5.392;2023-04-15T10:24:07;5.404;;;2.96;;
59986;SDS011;46181;51.498;5.392;2023-04-15T10:28:37;5.648001;;;2.736;;
59986;SDS011;46181;51.498;5.392;2023-04-15T10:33:06;6.968;;;2.516;;
59986;SDS011;46181;51.498;5.392;2023-04-15T10:37:37;5.34;;;2.564;;
59986;SDS011;46181;51.498;5.392;2023-04-15T10:42:10;5.020001;;;2.124;;
59986;SDS011;46181;51.498;5.392;2023-04-15T10:46:40;3.204;;;2.016;;
59986;SDS011;46181;51.498;5.392;2023-04-15T10:51:06;3.707999;;;1.84;;
59986;SDS011;46181;51.498;5.392;2023-04-15T10:55:36;3.38;;;1.84;;
59986;SDS011;46181;51.498;5.392;2023-04-15T11:00:13;5.584;;;2.24;;
59986;SDS011;46181;51.498;5.392;2023-04-15T11:09:07;4.440001;;;2.616;;
59986;SDS011;46181;51.498;5.392;2023-04-15T11:13:46;3.852;;;2.236;;
59986;SDS011;46181;51.498;5.392;2023-04-15T11:18:11;3.880001;;;2.168;;
59986;SDS011;46181;51.498;5.392;2023-04-15T11:22:36;3.408001;;;1.992;;
59986;SDS011;46181;51.498;5.392;2023-04-15T11:27:06;4.212001;;;2.176;;
59986;SDS011;46181;51.498;5.392;2023-04-15T11:31:36;4.496;;;2.276;;
59986;SDS011;46181;51.498;5.392;2023-04-15T11:36:07;5.52;;;2.248;;
59986;SDS011;46181;51.498;5.392;2023-04-15T11:40:37;6.196001;;;2.244;;
59986;SDS011;46181;51.498;5.392;2023-04-15T11:45:10;4.744001;;;2.168;;
59986;SDS011;46181;51.498;5.392;2023-04-15T11:49:36;3.364;;;1.868;;
59986;SDS011;46181;51.498;5.392;2023-04-15T11:54:07;5.776;;;1.972001;;
59986;SDS011;46181;51.498;5.392;2023-04-15T11:58:37;4.404;;;2.364;;
59986;SDS011;46181;51.498;5.392;2023-04-15T12:03:17;4.967999;;;2.608;;
59986;SDS011;46181;51.498;5.392;2023-04-15T12:07:36;4.552001;;;2.408;;
59986;SDS011;46181;51.498;5.392;2023-04-15T12:12:06;3.319999;;;1.908;;
59986;SDS011;46181;51.498;5.392;2023-04-15T12:16:38;3.156001;;;1.78;;
59986;SDS011;46181;51.498;5.392;2023-04-15T12:21:08;2.804;;;1.704;;
59986;SDS011;46181;51.498;5.392;2023-04-15T12:25:39;3.687999;;;2.16;;
59986;SDS011;46181;51.498;5.392;2023-04-15T12:30:07;4.503999;;;2.680001;;
59986;SDS011;46181;51.498;5.392;2023-04-15T12:34:37;3.984;;;2.24;;
59986;SDS011;46181;51.498;5.392;2023-04-15T12:39:07;5.036001;;;2.448;;
59986;SDS011;46181;51.498;5.392;2023-04-15T12:43:37;6.032001;;;3.252;;
59986;SDS011;46181;51.498;5.392;2023-04-15T12:48:07;4.436;;;2.336;;
59986;SDS011;46181;51.498;5.392;2023-04-15T12:52:37;3.480001;;;2.008;;
59986;SDS011;46181;51.498;5.392;2023-04-15T12:57:07;4.880001;;;2.196;;
59986;SDS011;46181;51.498;5.392;2023-04-15T13:01:37;3.812;;;1.908;;
59986;SDS011;46181;51.498;5.392;2023-04-15T13:06:07;3.364;;;1.824;;
59986;SDS011;46181;51.498;5.392;2023-04-15T13:10:37;3.58;;;1.884;;
59986;SDS011;46181;51.498;5.392;2023-04-15T13:15:07;3.728;;;1.816;;
59986;SDS011;46181;51.498;5.392;2023-04-15T13:19:37;3.28;;;1.6;;
59986;SDS011;46181;51.498;5.392;2023-04-15T13:24:07;2.604;;;1.484;;
59986;SDS011;46181;51.498;5.392;2023-04-15T13:28:37;2.652;;;1.4;;
59986;SDS011;46181;51.498;5.392;2023-04-15T13:33:07;4.252;;;1.688;;
59986;SDS011;46181;51.498;5.392;2023-04-15T13:37:37;2.84;;;1.52;;
59986;SDS011;46181;51.498;5.392;2023-04-15T13:42:07;6.203999;;;2.036;;
59986;SDS011;46181;51.498;5.392;2023-04-15T13:46:37;6.072;;;2.584;;
59986;SDS011;46181;51.498;5.392;2023-04-15T13:51:07;4.116;;;1.916;;
59986;SDS011;46181;51.498;5.392;2023-04-15T13:55:37;3.536;;;1.748;;
59986;SDS011;46181;51.498;5.392;2023-04-15T14:00:08;3.872001;;;1.924;;
59986;SDS011;46181;51.498;5.392;2023-04-15T14:04:37;4.244;;;2.136;;
59986;SDS011;46181;51.498;5.392;2023-04-15T14:09:07;4.348001;;;2.008;;
59986;SDS011;46181;51.498;5.392;2023-04-15T14:13:37;3.448;;;1.416;;
59986;SDS011;46181;51.498;5.392;2023-04-15T14:18:07;2.376;;;1.276;;
59986;SDS011;46181;51.498;5.392;2023-04-15T14:22:37;2.568;;;1.256;;
59986;SDS011;46181;51.498;5.392;2023-04-15T14:27:07;3.2;;;1.116;;
59986;SDS011;46181;51.498;5.392;2023-04-15T14:31:37;3.452;;;1.456;;
59986;SDS011;46181;51.498;5.392;2023-04-15T14:36:07;2.54;;;1.34;;
59986;SDS011;46181;51.498;5.392;2023-04-15T14:40:37;2.988;;;0.984;;
59986;SDS011;46181;51.498;5.392;2023-04-15T14:45:08;2.308;;;1.088;;
59986;SDS011;46181;51.498;5.392;2023-04-15T14:49:37;2.332;;;0.992;;
59986;SDS011;46181;51.498;5.392;2023-04-15T14:54:07;2.968;;;1.144;;
59986;SDS011;46181;51.498;5.392;2023-04-15T14:58:37;3.34;;;1.008;;
59986;SDS011;46181;51.498;5.392;2023-04-15T15:03:07;2.404;;;1.012;;
59986;SDS011;46181;51.498;5.392;2023-04-15T15:07:37;5.72;;;1.304;;
59986;SDS011;46181;51.498;5.392;2023-04-15T15:12:07;3;;;1.076;;
59986;SDS011;46181;51.498;5.392;2023-04-15T15:16:37;2.452;;;1.072;;
59986;SDS011;46181;51.498;5.392;2023-04-15T15:21:07;4.86;;;1.268;;
59986;SDS011;46181;51.498;5.392;2023-04-15T15:25:37;2.1;;;0.904;;
59986;SDS011;46181;51.498;5.392;2023-04-15T15:30:07;1.752;;;0.804;;
59986;SDS011;46181;51.498;5.392;2023-04-15T15:34:37;2.084;;;0.7;;
59986;SDS011;46181;51.498;5.392;2023-04-15T15:39:07;3.228;;;0.84;;
59986;SDS011;46181;51.498;5.392;2023-04-15T15:43:37;3.292;;;1;;
59986;SDS011;46181;51.498;5.392;2023-04-15T15:48:07;1.992;;;0.7;;
59986;SDS011;46181;51.498;5.392;2023-04-15T15:52:37;2.112;;;0.652;;
59986;SDS011;46181;51.498;5.392;2023-04-15T15:57:07;1.96;;;0.996;;
59986;SDS011;46181;51.498;5.392;2023-04-15T16:01:37;2.748;;;1.08;;
59986;SDS011;46181;51.498;5.392;2023-04-15T16:06:07;1.804;;;1.012;;
59986;SDS011;46181;51.498;5.392;2023-04-15T16:10:37;2.384;;;0.896;;
59986;SDS011;46181;51.498;5.392;2023-04-15T16:15:08;2.628;;;1.168;;
59986;SDS011;46181;51.498;5.392;2023-04-15T16:19:37;2.644;;;1.06;;
59986;SDS011;46181;51.498;5.392;2023-04-15T16:24:07;2.768;;;0.84;;
59986;SDS011;46181;51.498;5.392;2023-04-15T16:28:37;3.444;;;1.26;;
59986;SDS011;46181;51.498;5.392;2023-04-15T16:33:08;2.976;;;1.46;;
59986;SDS011;46181;51.498;5.392;2023-04-15T16:37:37;6.116;;;1.924;;
59986;SDS011;46181;51.498;5.392;2023-04-15T16:42:07;4.468001;;;1.46;;
59986;SDS011;46181;51.498;5.392;2023-04-15T16:46:37;4.82;;;1.144;;
59986;SDS011;46181;51.498;5.392;2023-04-15T16:51:07;6.835999;;;1.128;;
59986;SDS011;46181;51.498;5.392;2023-04-15T16:55:38;4.692;;;1.948;;
59986;SDS011;46181;51.498;5.392;2023-04-15T17:00:08;2.696;;;0.98;;
59986;SDS011;46181;51.498;5.392;2023-04-15T17:04:37;3.324;;;0.792;;
59986;SDS011;46181;51.498;5.392;2023-04-15T17:09:07;3.684;;;0.984;;
59986;SDS011;46181;51.498;5.392;2023-04-15T17:13:37;3.072;;;0.9;;
59986;SDS011;46181;51.498;5.392;2023-04-15T17:18:07;4.896001;;;0.9;;
59986;SDS011;46181;51.498;5.392;2023-04-15T17:22:37;2.772;;;0.808;;
59986;SDS011;46181;51.498;5.392;2023-04-15T17:27:07;3.724;;;0.9;;
59986;SDS011;46181;51.498;5.392;2023-04-15T17:31:37;2.840001;;;1.008;;
59986;SDS011;46181;51.498;5.392;2023-04-15T17:36:07;4.292;;;1.224;;
59986;SDS011;46181;51.498;5.392;2023-04-15T17:40:37;5.460001;;;1.312;;
59986;SDS011;46181;51.498;5.392;2023-04-15T17:45:07;4.951999;;;1.804;;
59986;SDS011;46181;51.498;5.392;2023-04-15T17:49:37;6.316;;;1.784;;
59986;SDS011;46181;51.498;5.392;2023-04-15T17:54:07;5.248;;;1.26;;
59986;SDS011;46181;51.498;5.392;2023-04-15T17:58:37;5.98;;;1.776;;
59986;SDS011;46181;51.498;5.392;2023-04-15T18:03:07;5.496;;;2.236;;
59986;SDS011;46181;51.498;5.392;2023-04-15T18:07:37;5.128;;;1.9;;
59986;SDS011;46181;51.498;5.392;2023-04-15T18:12:07;3.336;;;1.4;;
59986;SDS011;46181;51.498;5.392;2023-04-15T18:16:37;8.139999;;;1.716;;
59986;SDS011;46181;51.498;5.392;2023-04-15T18:21:07;5;;;1.364;;
59986;SDS011;46181;51.498;5.392;2023-04-15T18:25:37;4.992;;;1.804;;
59986;SDS011;46181;51.498;5.392;2023-04-15T18:30:08;4.592;;;1.4;;
59986;SDS011;46181;51.498;5.392;2023-04-15T18:34:37;6.112001;;;2.332;;
59986;SDS011;46181;51.498;5.392;2023-04-15T18:39:07;5.668001;;;1.82;;
59986;SDS011;46181;51.498;5.392;2023-04-15T18:43:37;5.448;;;2.032;;
59986;SDS011;46181;51.498;5.392;2023-04-15T18:48:07;22.616;;;12.372;;
59986;SDS011;46181;51.498;5.392;2023-04-15T18:52:37;11.596;;;7.760001;;
59986;SDS011;46181;51.498;5.392;2023-04-15T18:57:07;5.567999;;;3.052;;
59986;SDS011;46181;51.498;5.392;2023-04-15T19:01:37;7.211999;;;2.368001;;
59986;SDS011;46181;51.498;5.392;2023-04-15T19:06:07;4.824;;;1.472;;
59986;SDS011;46181;51.498;5.392;2023-04-15T19:10:37;5.159999;;;1.1;;
59986;SDS011;46181;51.498;5.392;2023-04-15T19:15:07;4.68;;;0.856;;
59986;SDS011;46181;51.498;5.392;2023-04-15T19:19:37;6.608;;;1.28;;
59986;SDS011;46181;51.498;5.392;2023-04-15T19:24:07;4.36;;;0.992;;
59986;SDS011;46181;51.498;5.392;2023-04-15T19:28:37;4.024001;;;0.94;;
59986;SDS011;46181;51.498;5.392;2023-04-15T19:33:07;5.048;;;1.028;;
59986;SDS011;46181;51.498;5.392;2023-04-15T19:37:37;2.664;;;0.856;;
59986;SDS011;46181;51.498;5.392;2023-04-15T19:42:07;5.795999;;;1.22;;
59986;SDS011;46181;51.498;5.392;2023-04-15T19:46:37;4.16;;;1.144;;
59986;SDS011;46181;51.498;5.392;2023-04-15T19:51:07;4.8;;;0.992;;
59986;SDS011;46181;51.498;5.392;2023-04-15T19:55:37;6.671999;;;1.288;;
59986;SDS011;46181;51.498;5.392;2023-04-15T20:00:08;5.175999;;;1.312;;
59986;SDS011;46181;51.498;5.392;2023-04-15T20:04:37;6.799999;;;1.124;;
59986;SDS011;46181;51.498;5.392;2023-04-15T20:09:07;9.023999;;;1.248;;
59986;SDS011;46181;51.498;5.392;2023-04-15T20:13:37;5.552;;;1.136;;
59986;SDS011;46181;51.498;5.392;2023-04-15T20:18:07;7.848001;;;1.212;;
59986;SDS011;46181;51.498;5.392;2023-04-15T20:22:37;4.676;;;1.188;;
59986;SDS011;46181;51.498;5.392;2023-04-15T20:27:07;4.460001;;;1.2;;
59986;SDS011;46181;51.498;5.392;2023-04-15T20:31:37;7.587999;;;1.996;;
59986;SDS011;46181;51.498;5.392;2023-04-15T20:36:07;5.912;;;1.36;;
59986;SDS011;46181;51.498;5.392;2023-04-15T20:40:37;5.524;;;1.324;;
59986;SDS011;46181;51.498;5.392;2023-04-15T20:45:08;7.300001;;;1.54;;
59986;SDS011;46181;51.498;5.392;2023-04-15T21:03:07;5.568;;;0.964;;
59986;SDS011;46181;51.498;5.392;2023-04-15T21:16:37;5.148;;;1.14;;
59986;SDS011;46181;51.498;5.392;2023-04-15T21:21:07;6.368001;;;1.172;;
59986;SDS011;46181;51.498;5.392;2023-04-15T21:25:37;4.527999;;;1.04;;
59986;SDS011;46181;51.498;5.392;2023-04-15T21:30:08;6.007999;;;1.492;;
59986;SDS011;46181;51.498;5.392;2023-04-15T21:34:37;6.616;;;1.276;;
59986;SDS011;46181;51.498;5.392;2023-04-15T21:39:07;5.964;;;1.492;;
59986;SDS011;46181;51.498;5.392;2023-04-15T21:43:37;4.36;;;1.388;;
59986;SDS011;46181;51.498;5.392;2023-04-15T21:48:07;5.424;;;1.544;;
59986;SDS011;46181;51.498;5.392;2023-04-15T21:52:37;7.516001;;;1.616;;
59986;SDS011;46181;51.498;5.392;2023-04-15T21:57:07;7.636;;;1.664;;
59986;SDS011;46181;51.498;5.392;2023-04-15T22:01:37;8.040001;;;1.564;;
59986;SDS011;46181;51.498;5.392;2023-04-15T22:06:07;4.696001;;;1.588;;
59986;SDS011;46181;51.498;5.392;2023-04-15T22:10:39;8.3;;;2.072;;
59986;SDS011;46181;51.498;5.392;2023-04-15T22:15:07;6.592;;;1.752;;
59986;SDS011;46181;51.498;5.392;2023-04-15T22:19:38;4.772;;;1.736;;
59986;SDS011;46181;51.498;5.392;2023-04-15T22:24:07;5.328;;;1.66;;
59986;SDS011;46181;51.498;5.392;2023-04-15T22:28:37;5.760001;;;1.724;;
59986;SDS011;46181;51.498;5.392;2023-04-15T22:33:07;6.164001;;;1.576;;
59986;SDS011;46181;51.498;5.392;2023-04-15T22:37:37;5.26;;;1.628;;
59986;SDS011;46181;51.498;5.392;2023-04-15T22:42:07;3.98;;;1.528;;
59986;SDS011;46181;51.498;5.392;2023-04-15T22:46:37;6.047999;;;1.752;;
59986;SDS011;46181;51.498;5.392;2023-04-15T22:51:07;7.34;;;1.848;;
59986;SDS011;46181;51.498;5.392;2023-04-15T22:55:37;6.448001;;;1.616;;
59986;SDS011;46181;51.498;5.392;2023-04-15T23:00:07;6.42;;;1.564;;
59986;SDS011;46181;51.498;5.392;2023-04-15T23:04:37;5.632;;;1.592;;
59986;SDS011;46181;51.498;5.392;2023-04-15T23:09:07;6.928;;;1.92;;
59986;SDS011;46181;51.498;5.392;2023-04-15T23:13:37;7.236;;;2.504;;
59986;SDS011;46181;51.498;5.392;2023-04-15T23:18:07;6.428;;;2.268;;
59986;SDS011;46181;51.498;5.392;2023-04-15T23:22:37;9.708;;;2.512;;
59986;SDS011;46181;51.498;5.392;2023-04-15T23:27:07;4.936001;;;2.38;;
59986;SDS011;46181;51.498;5.392;2023-04-15T23:31:37;5.508;;;2.188;;
59986;SDS011;46181;51.498;5.392;2023-04-15T23:36:07;8.532;;;2.236;;
59986;SDS011;46181;51.498;5.392;2023-04-15T23:40:37;7.395999;;;2.524;;
59986;SDS011;46181;51.498;5.392;2023-04-15T23:45:08;6.692;;;2.263999;;
59986;SDS011;46181;51.498;5.392;2023-04-15T23:49:37;7.172002;;;2.456;;
59986;SDS011;46181;51.498;5.392;2023-04-15T23:54:07;5.992;;;2.148;;
59986;SDS011;46181;51.498;5.392;2023-04-15T23:58:37;5.996;;;2.48;;
